Time;durP1;ratioP1;P1;durP2;ratioP2;P2;SDS_P1;SDS_P2;PMS_P1;PMS_P2;Temp;Humidity;BMP_temperature;BMP_pressure;BME280_temperature;BME280_humidity;BME280_pressure;Samples;Min_cycle;Max_cycle;Signal;HPM_P1;HPM_P2
2022/08/31 00:04:59;;;;;;;;;;;;;;;-155.54;100.00;57697.75;4996815;28;19972;-66
2022/08/31 00:07:26;;;;;;;;;;;;;;;-155.54;100.00;57697.75;4999646;28;19963;-66
2022/08/31 00:09:51;;;;;;;;;;;;;;;-155.54;100.00;57697.75;4992559;28;20016;-65
2022/08/31 00:12:16;;;;;;;;;;;;;;;-155.54;100.00;57697.75;4999380;28;20617;-66
2022/08/31 00:14:42;;;;;;;;;;;;;;;-155.54;100.00;57697.75;4995147;28;19932;-66
2022/08/31 00:17:07;;;;;;;;;;;;;;;-155.54;100.00;57697.75;4999203;28;19987;-65
2022/08/31 00:19:32;;;;;;;;;;;;;;;-155.54;100.00;57697.75;4993477;28;19984;-66
2022/08/31 00:21:57;;;;;;;;;;;;;;;-155.54;100.00;57697.75;4995999;28;20204;-66
2022/08/31 00:24:23;;;;;;;;;;;;;;;-155.54;100.00;57697.75;4993920;28;20009;-66
2022/08/31 00:26:48;;;;;;;;;;;;;;;-155.54;100.00;57697.75;4989899;28;19961;-65
2022/08/31 00:29:13;;;;;;;;;;;;;;;-155.54;100.00;57697.75;4991881;28;19960;-66
2022/08/31 00:31:38;;;;;;;;;;;;;;;-155.54;100.00;57697.75;4996648;28;19909;-66
2022/08/31 00:34:04;;;;;;;;;;;;;;;-155.54;100.00;57697.75;4997380;28;19968;-66
2022/08/31 00:36:29;;;;;;;;;;;;;;;-155.54;100.00;57697.75;5002906;28;19969;-65
2022/08/31 00:38:55;;;;;;;;;;;;;;;-155.54;100.00;57697.75;5001696;28;20490;-66
2022/08/31 00:41:21;;;;;;;;;;;;;;;-155.54;100.00;57697.75;4999671;28;19917;-66
2022/08/31 00:43:50;;;;;;;;;;;;;;;-155.54;100.00;57697.75;5001343;28;19917;-66
2022/08/31 00:46:17;;;;;;;;;;;;;;;-155.54;100.00;57697.75;5000269;28;19925;-66
2022/08/31 00:49:03;;;;;;;;;;;;;;;-155.54;100.00;57697.75;4996554;28;19971;-66
2022/08/31 00:51:29;;;;;;;;;;;;;;;-155.54;100.00;57697.75;5000846;28;20433;-66
2022/08/31 00:53:54;;;;;;;;;;;;;;;-155.54;100.00;57697.75;4990383;28;19988;-66
2022/08/31 00:56:19;;;;;;;;;;;;;;;-155.54;100.00;57697.75;4998115;28;19968;-66
2022/08/31 00:58:44;;;;;;;;;;;;;;;-155.54;100.00;57697.75;4999837;28;19944;-65
2022/08/31 01:01:10;;;;;;;;;;;;;;;-155.54;100.00;57697.75;5000538;28;19913;-65
2022/08/31 01:03:35;;;;;;;;;;;;;;;-155.54;100.00;57697.75;4980690;28;19921;-66
2022/08/31 01:06:01;;;;;;;;;;;;;;;-155.54;100.00;57697.75;4999852;28;20394;-66
2022/08/31 01:08:26;;;;;;;;;;;;;;;-155.54;100.00;57697.75;4979647;28;20361;-65
2022/08/31 01:10:51;;;;;;;;;;;;;;;-155.54;100.00;57697.75;4998718;28;19925;-66
2022/08/31 01:13:16;;;;;;;;;;;;;;;-155.54;100.00;57697.75;4994871;28;20200;-66
2022/08/31 01:15:47;;;;;;;;;;;;;;;-155.54;100.00;57697.75;4998054;28;19957;-66
2022/08/31 01:18:12;;;;;;;;;;;;;;;-155.54;100.00;57697.75;4977153;28;20365;-66
2022/08/31 01:20:55;;;;;;;;;;;;;;;-155.54;100.00;57697.75;4979311;28;19925;-66
2022/08/31 01:23:28;;;;;;;;;;;;;;;-155.54;100.00;57697.75;4982081;28;19924;-66
2022/08/31 01:25:54;;;;;;;;;;;;;;;-155.54;100.00;57697.75;4981925;28;19921;-66
2022/08/31 01:28:20;;;;;;;;;;;;;;;-155.54;100.00;57697.75;4994766;28;19988;-65
2022/08/31 01:30:56;;;;;;;;;;;;;;;-155.54;100.00;57697.75;4997043;28;19961;-66
2022/08/31 01:33:21;;;;;;;;;;;;;;;-155.54;100.00;57697.75;5001778;28;19920;-66
2022/08/31 01:35:46;;;;;;;;;;;;;;;-155.54;100.00;57697.75;5003026;28;19953;-66
2022/08/31 01:38:12;;;;;;;;;;;;;;;-155.54;100.00;57697.75;4983906;28;20360;-66
2022/08/31 01:40:43;;;;;;;;;;;;;;;-155.54;100.00;57697.75;4997429;28;19960;-66
2022/08/31 01:43:09;;;;;;;;;;;;;;;-155.54;100.00;57697.75;4997916;28;20382;-65
2022/08/31 01:45:34;;;;;;;;;;;;;;;-155.54;100.00;57697.75;5002043;28;20012;-65
2022/08/31 01:47:59;;;;;;;;;;;;;;;-155.54;100.00;57697.75;5001802;28;19928;-66
2022/08/31 01:50:24;;;;;;;;;;;;;;;-155.54;100.00;57697.75;5001949;28;19948;-66
2022/08/31 01:52:50;;;;;;;;;;;;;;;-155.54;100.00;57697.75;4999763;28;19913;-66
2022/08/31 01:55:15;;;;;;;;;;;;;;;-155.54;100.00;57697.75;4998787;28;19960;-66
2022/08/31 01:57:40;;;;;;;;;;;;;;;-155.54;100.00;57697.75;4999775;28;20481;-66
2022/08/31 02:00:07;;;;;;;;;;;;;;;-155.54;100.00;57697.75;4999869;28;19965;-65
2022/08/31 02:02:32;;;;;;;;;;;;;;;-155.54;100.00;57697.75;5004319;28;19921;-66
2022/08/31 02:04:57;;;;;;;;;;;;;;;-155.54;100.00;57697.75;5005019;28;20883;-65
2022/08/31 02:07:24;;;;;;;;;;;;;;;-155.54;100.00;57697.75;5002344;28;20184;-66
2022/08/31 02:09:49;;;;;;;;;;;;;;;-155.54;100.00;57697.75;4997060;28;19928;-66
2022/08/31 02:12:14;;;;;;;;;;;;;;;-155.54;100.00;57697.75;5003456;28;19917;-66
2022/08/31 02:14:39;;;;;;;;;;;;;;;-155.54;100.00;57697.75;5001421;28;19948;-66
2022/08/31 02:17:05;;;;;;;;;;;;;;;-155.54;100.00;57697.75;5001250;28;20100;-66
2022/08/31 02:19:30;;;;;;;;;;;;;;;-155.54;100.00;57697.75;5000287;28;20261;-66
2022/08/31 02:21:55;;;;;;;;;;;;;;;-155.54;100.00;57697.75;5002054;28;20430;-66
2022/08/31 02:24:20;;;;;;;;;;;;;;;-155.54;100.00;57697.75;5001914;28;20032;-66
2022/08/31 02:26:46;;;;;;;;;;;;;;;-155.54;100.00;57697.75;4982101;28;20044;-66
2022/08/31 02:29:11;;;;;;;;;;;;;;;-155.54;100.00;57697.75;4998387;28;20080;-66
2022/08/31 02:31:36;;;;;;;;;;;;;;;-155.54;100.00;57697.75;5000828;28;20433;-66
2022/08/31 02:34:01;;;;;;;;;;;;;;;-155.54;100.00;57697.75;5003555;28;20501;-66
2022/08/31 02:36:27;;;;;;;;;;;;;;;-155.54;100.00;57697.75;5000317;28;19981;-66
2022/08/31 02:38:52;;;;;;;;;;;;;;;-155.54;100.00;57697.75;5002107;28;20105;-66
2022/08/31 02:41:17;;;;;;;;;;;;;;;-155.54;100.00;57697.75;5002119;28;20076;-66
2022/08/31 02:43:43;;;;;;;;;;;;;;;-155.54;100.00;57697.75;5002125;28;19970;-66
2022/08/31 02:46:08;;;;;;;;;;;;;;;-155.54;100.00;57697.75;5001973;28;20012;-66
2022/08/31 02:48:33;;;;;;;;;;;;;;;-155.54;100.00;57697.75;5005095;28;20010;-65
2022/08/31 02:51:01;;;;;;;;;;;;;;;-155.54;100.00;57697.75;5001338;28;19997;-66
2022/08/31 02:53:27;;;;;;;;;;;;;;;-155.54;100.00;57697.75;5000754;28;19994;-66
2022/08/31 02:55:52;;;;;;;;;;;;;;;-155.54;100.00;57697.75;5000398;28;20067;-66
2022/08/31 02:58:17;;;;;;;;;;;;;;;-155.54;100.00;57697.75;4984489;28;20002;-65
2022/08/31 03:00:43;;;;;;;;;;;;;;;-155.54;100.00;57697.75;5001305;28;19974;-66
2022/08/31 03:03:08;;;;;;;;;;;;;;;-155.54;100.00;57697.75;5004151;28;20154;-66
2022/08/31 03:05:33;;;;;;;;;;;;;;;-155.54;100.00;57697.75;5000613;28;20102;-66
2022/08/31 03:07:59;;;;;;;;;;;;;;;-155.54;100.00;57697.75;5001629;28;20016;-66
2022/08/31 03:10:24;;;;;;;;;;;;;;;-155.54;100.00;57697.75;5003570;28;20036;-66
2022/08/31 03:12:49;;;;;;;;;;;;;;;-155.54;100.00;57697.75;5002864;28;19973;-66
2022/08/31 03:15:15;;;;;;;;;;;;;;;-155.54;100.00;57697.75;5000592;28;20083;-66
2022/08/31 03:17:40;;;;;;;;;;;;;;;-155.54;100.00;57697.75;5003584;28;19998;-65
2022/08/31 03:20:06;;;;;;;;;;;;;;;-155.54;100.00;57697.75;4999176;28;20013;-66
2022/08/31 03:22:31;;;;;;;;;;;;;;;-155.54;100.00;57697.75;5000710;28;20017;-66
2022/08/31 03:24:57;;;;;;;;;;;;;;;-155.54;100.00;57697.75;5000680;28;19981;-66
2022/08/31 03:27:23;;;;;;;;;;;;;;;-155.54;100.00;57697.75;5000553;28;20354;-66
2022/08/31 03:29:48;;;;;;;;;;;;;;;-155.54;100.00;57697.75;5000826;28;20429;-66
2022/08/31 03:32:14;;;;;;;;;;;;;;;-155.54;100.00;57697.75;5001435;28;19978;-66
2022/08/31 03:34:39;;;;;;;;;;;;;;;-155.54;100.00;57697.75;5002210;28;19994;-66
2022/08/31 03:37:04;;;;;;;;;;;;;;;-155.54;100.00;57697.75;5000999;28;19990;-66
2022/08/31 03:39:29;;;;;;;;;;;;;;;-155.54;100.00;57697.75;4985116;28;20029;-66
2022/08/31 03:41:54;;;;;;;;;;;;;;;-155.54;100.00;57697.75;4998767;28;19993;-66
2022/08/31 03:44:22;;;;;;;;;;;;;;;-155.54;100.00;57697.75;5002345;28;19969;-66
2022/08/31 03:46:49;;;;;;;;;;;;;;;-155.54;100.00;57697.75;5000582;28;20002;-66
2022/08/31 03:49:14;;;;;;;;;;;;;;;-155.54;100.00;57697.75;5000323;28;20021;-66
2022/08/31 03:51:39;;;;;;;;;;;;;;;-155.54;100.00;57697.75;5002808;28;20005;-67
2022/08/31 03:54:05;;;;;;;;;;;;;;;-155.54;100.00;57697.75;5000166;28;20455;-66
2022/08/31 03:56:30;;;;;;;;;;;;;;;-155.54;100.00;57697.75;5000073;28;20518;-66
2022/08/31 03:58:55;;;;;;;;;;;;;;;-155.54;100.00;57697.75;5003311;28;20079;-66
2022/08/31 04:01:20;;;;;;;;;;;;;;;-155.54;100.00;57697.75;4996653;28;20090;-66
2022/08/31 04:03:46;;;;;;;;;;;;;;;-155.54;100.00;57697.75;5003213;28;20017;-66
2022/08/31 04:06:11;;;;;;;;;;;;;;;-155.54;100.00;57697.75;4999436;28;20355;-66
2022/08/31 04:08:36;;;;;;;;;;;;;;;-155.54;100.00;57697.75;4997584;28;20508;-66
2022/08/31 04:11:05;;;;;;;;;;;;;;;-155.54;100.00;57697.75;4999369;28;20012;-66
2022/08/31 04:13:30;;;;;;;;;;;;;;;-155.54;100.00;57697.75;5002942;28;19973;-66
2022/08/31 04:15:57;;;;;;;;;;;;;;;-155.54;100.00;57697.75;4999711;28;20319;-66
2022/08/31 04:18:23;;;;;;;;;;;;;;;-155.54;100.00;57697.75;4995247;28;20473;-66
2022/08/31 04:20:48;;;;;;;;;;;;;;;-155.54;100.00;57697.75;4998765;28;19984;-66
2022/08/31 04:23:13;;;;;;;;;;;;;;;-155.54;100.00;57697.75;4997924;28;19994;-66
2022/08/31 04:25:39;;;;;;;;;;;;;;;-155.54;100.00;57697.75;4998761;28;20029;-66
2022/08/31 04:28:04;;;;;;;;;;;;;;;-155.54;100.00;57697.75;4994963;28;20382;-66
2022/08/31 04:30:29;;;;;;;;;;;;;;;-155.54;100.00;57697.75;5000247;28;20517;-66
2022/08/31 04:32:55;;;;;;;;;;;;;;;-155.54;100.00;57697.75;5001680;28;20009;-66
2022/08/31 04:35:21;;;;;;;;;;;;;;;-155.54;100.00;57697.75;4997823;28;20002;-66
2022/08/31 04:37:46;;;;;;;;;;;;;;;-155.54;100.00;57697.75;5000263;28;20489;-66
2022/08/31 04:40:18;;;;;;;;;;;;;;;-155.54;100.00;57697.75;4998502;28;20003;-66
2022/08/31 04:42:43;;;;;;;;;;;;;;;-155.54;100.00;57697.75;4997933;28;20301;-66
2022/08/31 04:45:10;;;;;;;;;;;;;;;-155.54;100.00;57697.75;5000484;28;20059;-66
2022/08/31 04:47:35;;;;;;;;;;;;;;;-155.54;100.00;57697.75;5000278;28;20558;-66
2022/08/31 04:50:00;;;;;;;;;;;;;;;-155.54;100.00;57697.75;5000117;28;20387;-66
2022/08/31 04:52:26;;;;;;;;;;;;;;;-155.54;100.00;57697.75;5000040;28;20269;-66
2022/08/31 04:54:52;;;;;;;;;;;;;;;-155.54;100.00;57697.75;4998737;28;19998;-66
2022/08/31 04:57:17;;;;;;;;;;;;;;;-155.54;100.00;57697.75;5002016;28;20045;-66
2022/08/31 04:59:42;;;;;;;;;;;;;;;-155.54;100.00;57697.75;4997846;28;19985;-66
2022/08/31 05:02:07;;;;;;;;;;;;;;;-155.54;100.00;57697.75;4996937;28;20001;-66
2022/08/31 05:04:33;;;;;;;;;;;;;;;-155.54;100.00;57697.75;4998867;28;19993;-66
2022/08/31 05:06:58;;;;;;;;;;;;;;;-155.54;100.00;57697.75;5002320;28;20510;-66
2022/08/31 05:09:23;;;;;;;;;;;;;;;-155.54;100.00;57697.75;5003932;28;20032;-66
2022/08/31 05:11:49;;;;;;;;;;;;;;;-155.54;100.00;57697.75;4997155;28;20473;-66
2022/08/31 05:14:15;;;;;;;;;;;;;;;-155.54;100.00;57697.75;5002915;28;19998;-66
2022/08/31 05:16:40;;;;;;;;;;;;;;;-155.54;100.00;57697.75;5003360;28;20039;-66
2022/08/31 05:19:05;;;;;;;;;;;;;;;-155.54;100.00;57697.75;5003460;28;20048;-66
2022/08/31 05:21:32;;;;;;;;;;;;;;;-155.54;100.00;57697.75;5005185;28;19985;-65
2022/08/31 05:23:58;;;;;;;;;;;;;;;-155.54;100.00;57697.75;4997508;28;19974;-66
2022/08/31 05:26:24;;;;;;;;;;;;;;;-155.54;100.00;57697.75;5004505;28;20490;-65
2022/08/31 05:28:49;;;;;;;;;;;;;;;-155.54;100.00;57697.75;4982933;28;20394;-65
2022/08/31 05:31:15;;;;;;;;;;;;;;;-155.54;100.00;57697.75;4981191;28;20077;-65
2022/08/31 05:33:40;;;;;;;;;;;;;;;-155.54;100.00;57697.75;4996336;28;20494;-66
2022/08/31 05:36:05;;;;;;;;;;;;;;;-155.54;100.00;57697.75;5001186;28;19984;-66
2022/08/31 05:38:31;;;;;;;;;;;;;;;-155.54;100.00;57697.75;4998865;28;19997;-66
2022/08/31 05:40:57;;;;;;;;;;;;;;;-155.54;100.00;57697.75;4996097;28;19975;-66
2022/08/31 05:43:22;;;;;;;;;;;;;;;-155.54;100.00;57697.75;5000933;28;20085;-66
2022/08/31 05:45:48;;;;;;;;;;;;;;;-155.54;100.00;57697.75;4999188;28;20089;-65
2022/08/31 05:48:13;;;;;;;;;;;;;;;-155.54;100.00;57697.75;4999583;28;20017;-65
2022/08/31 05:50:38;;;;;;;;;;;;;;;-155.54;100.00;57697.75;4999369;28;20461;-65
2022/08/31 05:53:03;;;;;;;;;;;;;;;-155.54;100.00;57697.75;4997997;28;20053;-66
2022/08/31 05:55:29;;;;;;;;;;;;;;;-155.54;100.00;57697.75;5001947;28;20039;-66
2022/08/31 05:57:54;;;;;;;;;;;;;;;-155.54;100.00;57697.75;4998543;28;20064;-67
2022/08/31 06:00:20;;;;;;;;;;;;;;;-155.54;100.00;57697.75;5001924;28;19977;-65
2022/08/31 06:02:45;;;;;;;;;;;;;;;-155.54;100.00;57697.75;4996946;28;20538;-66
2022/08/31 06:05:10;;;;;;;;;;;;;;;-155.54;100.00;57697.75;4995073;28;20061;-65
2022/08/31 06:07:35;;;;;;;;;;;;;;;-155.54;100.00;57697.75;4998825;28;19990;-65
2022/08/31 06:10:01;;;;;;;;;;;;;;;-155.54;100.00;57697.75;5003995;28;20028;-65
2022/08/31 06:12:26;;;;;;;;;;;;;;;-155.54;100.00;57697.75;5001024;28;19981;-66
2022/08/31 06:14:52;;;;;;;;;;;;;;;-155.54;100.00;57697.75;4999195;28;20444;-65
2022/08/31 06:17:17;;;;;;;;;;;;;;;-155.54;100.00;57697.75;5003889;28;20081;-65
2022/08/31 06:19:43;;;;;;;;;;;;;;;-155.54;100.00;57697.75;4995706;28;20000;-66
2022/08/31 06:22:08;;;;;;;;;;;;;;;-155.54;100.00;57697.75;4997995;28;20414;-66
2022/08/31 06:24:33;;;;;;;;;;;;;;;-155.54;100.00;57697.75;4998769;28;19974;-66
2022/08/31 06:27:00;;;;;;;;;;;;;;;-155.54;100.00;57697.75;5001170;28;19993;-66
2022/08/31 06:29:26;;;;;;;;;;;;;;;-155.54;100.00;57697.75;4999182;28;20406;-65
2022/08/31 06:31:51;;;;;;;;;;;;;;;-155.54;100.00;57697.75;4986254;28;19974;-65
2022/08/31 06:34:17;;;;;;;;;;;;;;;-155.54;100.00;57697.75;4999059;28;20088;-65
2022/08/31 06:36:42;;;;;;;;;;;;;;;-155.54;100.00;57697.75;4998540;28;20049;-65
2022/08/31 06:39:07;;;;;;;;;;;;;;;-155.54;100.00;57697.75;4995174;28;20046;-65
2022/08/31 06:41:33;;;;;;;;;;;;;;;-155.54;100.00;57697.75;4998071;28;20033;-65
2022/08/31 06:43:59;;;;;;;;;;;;;;;-155.54;100.00;57697.75;4999140;28;20064;-65
2022/08/31 06:46:24;;;;;;;;;;;;;;;-155.54;100.00;57697.75;5000472;28;20432;-65
2022/08/31 06:48:53;;;;;;;;;;;;;;;-155.54;100.00;57697.75;5001766;28;19976;-66
2022/08/31 06:51:18;;;;;;;;;;;;;;;-155.54;100.00;57697.75;4999130;28;20073;-66
2022/08/31 06:53:44;;;;;;;;;;;;;;;-155.54;100.00;57697.75;4999005;28;20427;-65
2022/08/31 06:56:13;;;;;;;;;;;;;;;-155.54;100.00;57697.75;4994194;28;19974;-65
2022/08/31 06:58:38;;;;;;;;;;;;;;;-155.54;100.00;57697.75;4995213;28;20006;-65
2022/08/31 07:01:13;;;;;;;;;;;;;;;-155.54;100.00;57697.75;5001733;28;19984;-65
2022/08/31 07:03:39;;;;;;;;;;;;;;;-155.54;100.00;57697.75;5002606;28;19993;-65
2022/08/31 07:06:06;;;;;;;;;;;;;;;-155.54;100.00;57697.75;4983887;28;20080;-65
2022/08/31 07:08:31;;;;;;;;;;;;;;;-155.54;100.00;57697.75;5004414;28;20365;-66
2022/08/31 07:10:56;;;;;;;;;;;;;;;-155.54;100.00;57697.75;4987216;28;19994;-65
2022/08/31 07:13:21;;;;;;;;;;;;;;;-155.54;100.00;57697.75;5000209;28;19970;-66
2022/08/31 07:15:47;;;;;;;;;;;;;;;-155.54;100.00;57697.75;4993052;28;20321;-65
2022/08/31 07:18:12;;;;;;;;;;;;;;;-155.54;100.00;57697.75;5002730;28;20486;-65
2022/08/31 07:20:37;;;;;;;;;;;;;;;-155.54;100.00;57697.75;4998492;28;20033;-66
2022/08/31 07:23:04;;;;;;;;;;;;;;;-155.54;100.00;57697.75;4996506;28;20033;-66
2022/08/31 07:25:29;;;;;;;;;;;;;;;-155.54;100.00;57697.75;4999097;28;19939;-66
2022/08/31 07:27:54;;;;;;;;;;;;;;;-155.54;100.00;57697.75;4997092;28;20426;-66
2022/08/31 07:30:20;;;;;;;;;;;;;;;-155.54;100.00;57697.75;4999467;28;20360;-66
2022/08/31 07:32:46;;;;;;;;;;;;;;;-155.54;100.00;57697.75;4989586;28;20521;-66
2022/08/31 07:35:11;;;;;;;;;;;;;;;-155.54;100.00;57697.75;4990270;28;19969;-65
2022/08/31 07:43:04;;;;;;;;;;;;;;;-155.54;100.00;57697.75;4992215;28;20358;-66
2022/08/31 07:45:29;;;;;;;;;;;;;;;-155.54;100.00;57697.75;4996774;28;20044;-66
2022/08/31 07:47:55;;;;;;;;;;;;;;;-155.54;100.00;57697.75;4995933;28;19921;-66
2022/08/31 07:50:21;;;;;;;;;;;;;;;-155.54;100.00;57697.75;4995762;28;19953;-66
2022/08/31 07:52:47;;;;;;;;;;;;;;;-155.54;100.00;57697.75;4996460;28;20218;-66
2022/08/31 07:55:13;;;;;;;;;;;;;;;-155.54;100.00;57697.75;4985257;28;19925;-66
2022/08/31 07:57:42;;;;;;;;;;;;;;;-155.54;100.00;57697.75;4989835;28;19929;-66
2022/08/31 08:00:08;;;;;;;;;;;;;;;-155.54;100.00;57697.75;4993985;28;19918;-66
2022/08/31 08:02:37;;;;;;;;;;;;;;;-155.54;100.00;57697.75;4976698;28;20416;-66
2022/08/31 08:05:04;;;;;;;;;;;;;;;-155.54;100.00;57697.75;4991015;28;19922;-66
2022/08/31 08:07:32;;;;;;;;;;;;;;;-155.54;100.00;57697.75;4995846;28;21185;-66
2022/08/31 08:09:57;;;;;;;;;;;;;;;-155.54;100.00;57697.75;4996707;28;20042;-66
2022/08/31 08:12:24;;;;;;;;;;;;;;;-155.54;100.00;57697.75;4993776;28;19979;-67
2022/08/31 08:14:50;;;;;;;;;;;;;;;-155.54;100.00;57697.75;4993340;28;19998;-66
2022/08/31 08:17:15;;;;;;;;;;;;;;;-155.54;100.00;57697.75;4989890;28;20114;-67
2022/08/31 08:19:41;;;;;;;;;;;;;;;-155.54;100.00;57697.75;4998097;28;20094;-67
2022/08/31 08:22:06;;;;;;;;;;;;;;;-155.54;100.00;57697.75;4990130;28;20014;-67
2022/08/31 08:24:31;;;;;;;;;;;;;;;-155.54;100.00;57697.75;4994181;28;21208;-67
2022/08/31 08:26:56;;;;;;;;;;;;;;;-155.54;100.00;57697.75;4998239;28;19992;-68
2022/08/31 08:29:22;;;;;;;;;;;;;;;-155.54;100.00;57697.75;4974128;28;20398;-67
2022/08/31 08:31:50;;;;;;;;;;;;;;;-155.54;100.00;57697.75;4985593;28;19921;-67
2022/08/31 08:34:17;;;;;;;;;;;;;;;-155.54;100.00;57697.75;4994331;28;19925;-67
2022/08/31 08:36:43;;;;;;;;;;;;;;;-155.54;100.00;57697.75;4991303;28;20426;-67
2022/08/31 08:39:08;;;;;;;;;;;;;;;-155.54;100.00;57697.75;4997811;28;20009;-67
2022/08/31 08:41:34;;;;;;;;;;;;;;;-155.54;100.00;57697.75;4995277;28;19957;-67
2022/08/31 08:44:00;;;;;;;;;;;;;;;-155.54;100.00;57697.75;4979144;28;19929;-67
2022/08/31 08:46:28;;;;;;;;;;;;;;;-155.54;100.00;57697.75;4999745;28;19929;-67
2022/08/31 08:48:54;;;;;;;;;;;;;;;-155.54;100.00;57697.75;4976562;28;19922;-67
2022/08/31 08:51:19;;;;;;;;;;;;;;;-155.54;100.00;57697.75;4977006;28;19926;-68
2022/08/31 08:53:45;;;;;;;;;;;;;;;-155.54;100.00;57697.75;4985962;28;19925;-67
2022/08/31 08:56:11;;;;;;;;;;;;;;;-155.54;100.00;57697.75;5001462;28;20453;-67
2022/08/31 08:58:39;;;;;;;;;;;;;;;-155.54;100.00;57697.75;4991657;28;20123;-67
2022/08/31 09:01:04;;;;;;;;;;;;;;;-155.54;100.00;57697.75;4976056;28;20161;-67
2022/08/31 09:03:41;;;;;;;;;;;;;;;-155.54;100.00;57697.75;4999727;28;20012;-67
2022/08/31 09:06:25;;;;;;;;;;;;;;;-155.54;100.00;57697.75;4985777;28;20414;-67
2022/08/31 09:09:07;;;;;;;;;;;;;;;-155.54;100.00;57697.75;4995028;28;19979;-67
2022/08/31 09:11:51;;;;;;;;;;;;;;;-155.54;100.00;57697.75;4995698;28;20012;-67
2022/08/31 09:14:24;;;;;;;;;;;;;;;-155.54;100.00;57697.75;4991858;28;19933;-66
2022/08/31 09:16:49;;;;;;;;;;;;;;;-155.54;100.00;57697.75;4994365;28;19921;-67
2022/08/31 09:19:15;;;;;;;;;;;;;;;-155.54;100.00;57697.75;4997492;28;20283;-66
2022/08/31 09:21:46;;;;;;;;;;;;;;;-155.54;100.00;57697.75;4995562;28;20301;-67
2022/08/31 09:24:12;;;;;;;;;;;;;;;-155.54;100.00;57697.75;4993662;28;19924;-66
2022/08/31 09:26:56;;;;;;;;;;;;;;;-155.54;100.00;57697.75;4992890;28;19936;-66
2022/08/31 09:29:23;;;;;;;;;;;;;;;-155.54;100.00;57697.75;4986176;28;20367;-66
2022/08/31 09:31:49;;;;;;;;;;;;;;;-155.54;100.00;57697.75;4992839;28;19917;-66
2022/08/31 09:34:28;;;;;;;;;;;;;;;-155.54;100.00;57697.75;4981797;28;20052;-66
2022/08/31 09:37:01;;;;;;;;;;;;;;;-155.54;100.00;57697.75;4991458;28;20399;-66
2022/08/31 09:39:29;;;;;;;;;;;;;;;-155.54;100.00;57697.75;4974717;28;20394;-66
2022/08/31 09:41:56;;;;;;;;;;;;;;;-155.54;100.00;57697.75;4993161;28;20170;-66
2022/08/31 09:44:33;;;;;;;;;;;;;;;-155.54;100.00;57697.75;4994105;28;19922;-66
2022/08/31 09:47:03;;;;;;;;;;;;;;;-155.54;100.00;57697.75;4977381;28;19930;-66
2022/08/31 09:49:33;;;;;;;;;;;;;;;-155.54;100.00;57697.75;4992173;28;19923;-66
2022/08/31 09:52:15;;;;;;;;;;;;;;;-155.54;100.00;57697.75;4974554;28;19960;-66
2022/08/31 09:57:43;;;;;;;;;;;;;;;-155.54;100.00;57697.75;4980312;28;20425;-66
2022/08/31 10:00:12;;;;;;;;;;;;;;;-155.54;100.00;57697.75;4992593;28;20366;-75
2022/08/31 10:02:37;;;;;;;;;;;;;;;-155.54;100.00;57697.75;4987913;28;20575;-75
2022/08/31 10:05:04;;;;;;;;;;;;;;;-155.54;100.00;57697.75;5005488;28;19924;-75
2022/08/31 10:07:30;;;;;;;;;;;;;;;-155.54;100.00;57697.75;5005358;28;19928;-75
2022/08/31 10:10:02;;;;;;;;;;;;;;;-155.54;100.00;57697.75;5004773;28;20314;-75
2022/08/31 10:12:37;;;;;;;;;;;;;;;-155.54;100.00;57697.75;4987289;28;19918;-76
2022/08/31 10:15:04;;;;;;;;;;;;;;;-155.54;100.00;57697.75;4986324;28;19972;-76
2022/08/31 10:17:37;;;;;;;;;;;;;;;-155.54;100.00;57697.75;4985257;28;20186;-75
2022/08/31 10:20:07;;;;;;;;;;;;;;;-155.54;100.00;57697.75;5001812;28;19914;-75
2022/08/31 10:22:35;;;;;;;;;;;;;;;-155.54;100.00;57697.75;4983566;28;19917;-75
2022/08/31 10:25:05;;;;;;;;;;;;;;;-155.54;100.00;57697.75;4999764;28;19967;-76
2022/08/31 10:27:37;;;;;;;;;;;;;;;-155.54;100.00;57697.75;4995844;28;19933;-74
2022/08/31 10:30:08;;;;;;;;;;;;;;;-155.54;100.00;57697.75;4981993;28;20419;-75
2022/08/31 10:32:35;;;;;;;;;;;;;;;-155.54;100.00;57697.75;4998601;28;19956;-75
2022/08/31 10:35:08;;;;;;;;;;;;;;;-155.54;100.00;57697.75;4979091;28;20402;-76
2022/08/31 10:37:42;;;;;;;;;;;;;;;-155.54;100.00;57697.75;4979610;28;19929;-75
2022/08/31 10:40:31;;;;;;;;;;;;;;;-155.54;100.00;57697.75;4987503;28;19914;-77
2022/08/31 10:43:08;;;;;;;;;;;;;;;-155.54;100.00;57697.75;4999288;28;20441;-75
2022/08/31 10:45:35;;;;;;;;;;;;;;;-155.54;100.00;57697.75;4970167;28;19928;-75
2022/08/31 10:48:01;;;;;;;;;;;;;;;-155.54;100.00;57697.75;4987248;28;19967;-76
2022/08/31 10:50:31;;;;;;;;;;;;;;;-155.54;100.00;57697.75;5004240;28;19918;-76
2022/08/31 10:53:10;;;;;;;;;;;;;;;-155.54;100.00;57697.75;4971469;28;20421;-75
2022/08/31 10:55:38;;;;;;;;;;;;;;;-155.54;100.00;57697.75;4984481;28;19925;-75
2022/08/31 10:58:12;;;;;;;;;;;;;;;-155.54;100.00;57697.75;4984470;28;19944;-76
2022/08/31 11:00:48;;;;;;;;;;;;;;;-155.54;100.00;57697.75;5002160;28;19924;-76
2022/08/31 11:03:20;;;;;;;;;;;;;;;-155.54;100.00;57697.75;4983489;28;19933;-76
2022/08/31 11:05:54;;;;;;;;;;;;;;;-155.54;100.00;57697.75;4982232;28;20583;-75
2022/08/31 11:08:29;;;;;;;;;;;;;;;-155.54;100.00;57697.75;4992807;28;20205;-75
2022/08/31 11:10:54;;;;;;;;;;;;;;;-155.54;100.00;57697.75;4996215;28;19921;-78
2022/08/31 11:13:24;;;;;;;;;;;;;;;-155.54;100.00;57697.75;5001836;28;19976;-78
2022/08/31 11:15:53;;;;;;;;;;;;;;;-155.54;100.00;57697.75;4994885;28;19922;-78
2022/08/31 11:18:38;;;;;;;;;;;;;;;-155.54;100.00;57697.75;5013594;28;19929;-80
2022/08/31 11:21:03;;;;;;;;;;;;;;;-155.54;100.00;57697.75;4979873;28;19962;-79
2022/08/31 11:23:29;;;;;;;;;;;;;;;-155.54;100.00;57697.75;4999870;28;19975;-79
2022/08/31 11:26:00;;;;;;;;;;;;;;;-155.54;100.00;57697.75;5003462;28;20465;-80
2022/08/31 11:28:30;;;;;;;;;;;;;;;-155.54;100.00;57697.75;5002416;28;20394;-80
2022/08/31 11:30:56;;;;;;;;;;;;;;;-155.54;100.00;57697.75;4994689;28;20394;-79
2022/08/31 11:33:27;;;;;;;;;;;;;;;-155.54;100.00;57697.75;4999455;28;19922;-79
2022/08/31 11:36:00;;;;;;;;;;;;;;;-155.54;100.00;57697.75;4974414;28;19951;-80
2022/08/31 11:38:47;;;;;;;;;;;;;;;-155.54;100.00;57697.75;5004982;28;20026;-80
2022/08/31 11:41:31;;;;;;;;;;;;;;;-155.54;100.00;57697.75;4998834;28;19943;-79
2022/08/31 11:43:57;;;;;;;;;;;;;;;-155.54;100.00;57697.75;5001997;28;20020;-80
2022/08/31 11:46:25;;;;;;;;;;;;;;;-155.54;100.00;57697.75;4976725;28;20014;-79
2022/08/31 11:48:50;;;;;;;;;;;;;;;-155.54;100.00;57697.75;5000319;28;20161;-80
2022/08/31 11:51:31;;;;;;;;;;;;;;;-155.54;100.00;57697.75;4999003;28;20324;-80
2022/08/31 11:53:56;;;;;;;;;;;;;;;-155.54;100.00;57697.75;4990614;28;20294;-79
2022/08/31 11:56:34;;;;;;;;;;;;;;;-155.54;100.00;57697.75;4992046;28;20286;-79
2022/08/31 11:59:18;;;;;;;;;;;;;;;-155.54;100.00;57697.75;4965017;28;19921;-79
2022/08/31 12:01:44;;;;;;;;;;;;;;;-155.54;100.00;57697.75;5002950;28;19956;-79
2022/08/31 12:04:28;;;;;;;;;;;;;;;-155.54;100.00;57697.75;4981978;28;20397;-79
2022/08/31 12:06:53;;;;;;;;;;;;;;;-155.54;100.00;57697.75;4995242;28;20007;-79
2022/08/31 12:09:31;;;;;;;;;;;;;;;-155.54;100.00;57697.75;4975596;28;20366;-79
2022/08/31 12:12:15;;;;;;;;;;;;;;;-155.54;100.00;57697.75;4983083;28;19984;-79
2022/08/31 12:14:40;;;;;;;;;;;;;;;-155.54;100.00;57697.75;4992182;28;20463;-79
2022/08/31 12:17:08;;;;;;;;;;;;;;;-155.54;100.00;57697.75;4998380;28;19925;-80
2022/08/31 12:25:34;;;;;;;;;;;;;;;-155.54;100.00;57697.75;4996084;28;19959;-81
2022/08/31 12:28:18;;;;;;;;;;;;;;;-155.54;100.00;57697.75;4978857;28;19933;-79
2022/08/31 12:30:50;;;;;;;;;;;;;;;-155.54;100.00;57697.75;5005320;28;20325;-80
2022/08/31 12:33:16;;;;;;;;;;;;;;;-155.54;100.00;57697.75;5000815;28;19934;-79
2022/08/31 12:35:45;;;;;;;;;;;;;;;-155.54;100.00;57697.75;4987676;28;20261;-79
2022/08/31 12:38:16;;;;;;;;;;;;;;;-155.54;100.00;57697.75;4984663;28;20004;-79